sensor_id;sensor_type;location;lat;lon;timestamp;temperature;humidity
21944;DHT22;11136;48.778;9.126;2023-07-28T00:00:24;18.80;99.90
21944;DHT22;11136;48.778;9.126;2023-07-28T00:02:50;18.80;99.90
21944;DHT22;11136;48.778;9.126;2023-07-28T00:05:15;18.70;99.90
21944;DHT22;11136;48.778;9.126;2023-07-28T00:07:41;18.70;99.90
21944;DHT22;11136;48.778;9.126;2023-07-28T00:10:07;18.70;99.90
21944;DHT22;11136;48.778;9.126;2023-07-28T00:12:32;18.70;99.90
21944;DHT22;11136;48.778;9.126;2023-07-28T00:14:58;18.60;99.90
21944;DHT22;11136;48.778;9.126;2023-07-28T00:17:25;18.60;99.90
21944;DHT22;11136;48.778;9.126;2023-07-28T00:19:51;18.60;99.90
21944;DHT22;11136;48.778;9.126;2023-07-28T00:22:16;18.60;99.90
21944;DHT22;11136;48.778;9.126;2023-07-28T00:24:42;18.60;99.90
21944;DHT22;11136;48.778;9.126;2023-07-28T00:27:08;18.60;99.90
21944;DHT22;11136;48.778;9.126;2023-07-28T00:29:33;18.50;99.90
21944;DHT22;11136;48.778;9.126;2023-07-28T00:31:59;18.70;99.90
21944;DHT22;11136;48.778;9.126;2023-07-28T00:34:24;18.60;99.90
21944;DHT22;11136;48.778;9.126;2023-07-28T00:36:50;18.50;99.90
21944;DHT22;11136;48.778;9.126;2023-07-28T00:39:16;18.50;99.90
21944;DHT22;11136;48.778;9.126;2023-07-28T00:41:41;18.50;99.90
21944;DHT22;11136;48.778;9.126;2023-07-28T00:44:07;18.50;99.90
21944;DHT22;11136;48.778;9.126;2023-07-28T00:46:32;18.40;99.90
21944;DHT22;11136;48.778;9.126;2023-07-28T00:48:58;18.50;99.90
21944;DHT22;11136;48.778;9.126;2023-07-28T00:51:24;18.40;99.90
21944;DHT22;11136;48.778;9.126;2023-07-28T00:53:50;18.40;99.90
21944;DHT22;11136;48.778;9.126;2023-07-28T00:56:18;18.40;99.90
21944;DHT22;11136;48.778;9.126;2023-07-28T00:58:44;18.40;99.90
21944;DHT22;11136;48.778;9.126;2023-07-28T01:01:10;18.30;99.90
21944;DHT22;11136;48.778;9.126;2023-07-28T01:03:35;18.30;99.90
21944;DHT22;11136;48.778;9.126;2023-07-28T01:09:06;18.30;99.90
21944;DHT22;11136;48.778;9.126;2023-07-28T01:11:34;18.20;99.90
21944;DHT22;11136;48.778;9.126;2023-07-28T01:14:00;18.30;99.90
21944;DHT22;11136;48.778;9.126;2023-07-28T01:16:25;18.20;99.90
21944;DHT22;11136;48.778;9.126;2023-07-28T01:18:51;18.30;99.90
21944;DHT22;11136;48.778;9.126;2023-07-28T01:21:24;18.20;99.90
21944;DHT22;11136;48.778;9.126;2023-07-28T01:24:20;18.30;99.90
21944;DHT22;11136;48.778;9.126;2023-07-28T01:26:48;18.30;99.90
21944;DHT22;11136;48.778;9.126;2023-07-28T01:29:15;18.20;99.90
21944;DHT22;11136;48.778;9.126;2023-07-28T01:31:41;18.20;99.90
21944;DHT22;11136;48.778;9.126;2023-07-28T01:34:07;18.20;99.90
21944;DHT22;11136;48.778;9.126;2023-07-28T01:36:33;18.20;99.90
21944;DHT22;11136;48.778;9.126;2023-07-28T01:38:58;18.20;99.90
21944;DHT22;11136;48.778;9.126;2023-07-28T01:41:24;18.20;99.90
21944;DHT22;11136;48.778;9.126;2023-07-28T01:43:50;18.20;99.90
21944;DHT22;11136;48.778;9.126;2023-07-28T01:46:15;18.30;99.90
21944;DHT22;11136;48.778;9.126;2023-07-28T01:48:41;18.20;99.90
21944;DHT22;11136;48.778;9.126;2023-07-28T01:51:06;18.30;99.90
21944;DHT22;11136;48.778;9.126;2023-07-28T01:53:32;18.20;99.90
21944;DHT22;11136;48.778;9.126;2023-07-28T01:55:57;18.30;99.90
21944;DHT22;11136;48.778;9.126;2023-07-28T01:58:23;18.40;99.90
21944;DHT22;11136;48.778;9.126;2023-07-28T02:00:49;18.30;99.90
21944;DHT22;11136;48.778;9.126;2023-07-28T02:03:14;18.30;99.90
21944;DHT22;11136;48.778;9.126;2023-07-28T02:05:40;18.20;99.90
21944;DHT22;11136;48.778;9.126;2023-07-28T02:08:05;18.30;99.90
21944;DHT22;11136;48.778;9.126;2023-07-28T02:10:31;18.40;99.90
21944;DHT22;11136;48.778;9.126;2023-07-28T02:12:57;18.20;99.90
21944;DHT22;11136;48.778;9.126;2023-07-28T02:15:22;18.20;99.90
21944;DHT22;11136;48.778;9.126;2023-07-28T02:17:48;18.10;99.90
21944;DHT22;11136;48.778;9.126;2023-07-28T02:20:14;18.10;99.90
21944;DHT22;11136;48.778;9.126;2023-07-28T02:22:41;18.10;99.90
21944;DHT22;11136;48.778;9.126;2023-07-28T02:25:07;18.10;99.90
21944;DHT22;11136;48.778;9.126;2023-07-28T02:27:33;18.10;99.90
21944;DHT22;11136;48.778;9.126;2023-07-28T02:29:58;18.10;99.90
21944;DHT22;11136;48.778;9.126;2023-07-28T02:32:24;18.10;99.90
21944;DHT22;11136;48.778;9.126;2023-07-28T02:34:50;18.00;99.90
21944;DHT22;11136;48.778;9.126;2023-07-28T02:37:15;18.00;99.90
21944;DHT22;11136;48.778;9.126;2023-07-28T02:39:41;18.00;99.90
21944;DHT22;11136;48.778;9.126;2023-07-28T02:42:07;18.10;99.90
21944;DHT22;11136;48.778;9.126;2023-07-28T02:44:33;18.00;99.90
21944;DHT22;11136;48.778;9.126;2023-07-28T02:46:58;18.00;99.90
21944;DHT22;11136;48.778;9.126;2023-07-28T02:49:24;18.10;99.90
21944;DHT22;11136;48.778;9.126;2023-07-28T02:51:49;18.00;99.90
21944;DHT22;11136;48.778;9.126;2023-07-28T02:54:15;18.10;99.90
21944;DHT22;11136;48.778;9.126;2023-07-28T02:56:41;18.00;99.90
21944;DHT22;11136;48.778;9.126;2023-07-28T02:59:06;18.00;99.90
21944;DHT22;11136;48.778;9.126;2023-07-28T03:01:32;18.10;99.90
21944;DHT22;11136;48.778;9.126;2023-07-28T03:04:01;18.10;99.90
21944;DHT22;11136;48.778;9.126;2023-07-28T03:06:27;18.00;99.90
21944;DHT22;11136;48.778;9.126;2023-07-28T03:08:53;18.00;99.90
21944;DHT22;11136;48.778;9.126;2023-07-28T03:11:19;18.10;99.90
21944;DHT22;11136;48.778;9.126;2023-07-28T03:13:44;18.10;99.90
21944;DHT22;11136;48.778;9.126;2023-07-28T03:16:10;18.10;99.90
21944;DHT22;11136;48.778;9.126;2023-07-28T03:18:35;18.10;99.90
21944;DHT22;11136;48.778;9.126;2023-07-28T03:21:01;18.10;99.90
21944;DHT22;11136;48.778;9.126;2023-07-28T03:23:27;18.10;99.90
21944;DHT22;11136;48.778;9.126;2023-07-28T03:25:52;18.10;99.90
21944;DHT22;11136;48.778;9.126;2023-07-28T03:28:18;18.10;99.90
21944;DHT22;11136;48.778;9.126;2023-07-28T03:30:43;18.10;99.90
21944;DHT22;11136;48.778;9.126;2023-07-28T03:33:09;18.10;99.90
21944;DHT22;11136;48.778;9.126;2023-07-28T03:35:34;18.10;99.90
21944;DHT22;11136;48.778;9.126;2023-07-28T03:38:00;18.10;99.90
21944;DHT22;11136;48.778;9.126;2023-07-28T03:40:26;18.10;99.90
21944;DHT22;11136;48.778;9.126;2023-07-28T03:42:52;18.10;99.90
21944;DHT22;11136;48.778;9.126;2023-07-28T03:45:18;18.10;99.90
21944;DHT22;11136;48.778;9.126;2023-07-28T03:47:45;18.10;99.90
21944;DHT22;11136;48.778;9.126;2023-07-28T03:50:10;18.10;99.90
21944;DHT22;11136;48.778;9.126;2023-07-28T03:52:36;18.10;99.90
21944;DHT22;11136;48.778;9.126;2023-07-28T03:55:02;18.10;99.90
21944;DHT22;11136;48.778;9.126;2023-07-28T03:57:28;18.10;99.90
21944;DHT22;11136;48.778;9.126;2023-07-28T03:59:53;18.10;99.90
21944;DHT22;11136;48.778;9.126;2023-07-28T04:02:19;18.10;99.90
21944;DHT22;11136;48.778;9.126;2023-07-28T04:04:44;18.10;99.90
21944;DHT22;11136;48.778;9.126;2023-07-28T04:07:10;18.10;99.90
21944;DHT22;11136;48.778;9.126;2023-07-28T04:09:36;18.10;99.90
21944;DHT22;11136;48.778;9.126;2023-07-28T04:12:01;18.30;99.90
21944;DHT22;11136;48.778;9.126;2023-07-28T04:14:27;18.20;99.90
21944;DHT22;11136;48.778;9.126;2023-07-28T04:16:52;18.20;99.90
21944;DHT22;11136;48.778;9.126;2023-07-28T04:19:18;18.20;99.90
21944;DHT22;11136;48.778;9.126;2023-07-28T04:21:43;18.40;99.90
21944;DHT22;11136;48.778;9.126;2023-07-28T04:24:10;18.50;99.90
21944;DHT22;11136;48.778;9.126;2023-07-28T04:26:36;18.20;99.90
21944;DHT22;11136;48.778;9.126;2023-07-28T04:29:02;18.30;99.90
21944;DHT22;11136;48.778;9.126;2023-07-28T04:31:29;18.30;99.90
21944;DHT22;11136;48.778;9.126;2023-07-28T04:33:54;18.30;99.90
21944;DHT22;11136;48.778;9.126;2023-07-28T04:36:20;18.30;99.90
21944;DHT22;11136;48.778;9.126;2023-07-28T04:38:45;18.30;99.90
21944;DHT22;11136;48.778;9.126;2023-07-28T04:41:11;18.30;99.90
21944;DHT22;11136;48.778;9.126;2023-07-28T04:43:37;18.30;99.90
21944;DHT22;11136;48.778;9.126;2023-07-28T04:46:02;18.30;99.90
21944;DHT22;11136;48.778;9.126;2023-07-28T04:48:28;18.30;99.90
21944;DHT22;11136;48.778;9.126;2023-07-28T04:50:53;18.30;99.90
21944;DHT22;11136;48.778;9.126;2023-07-28T04:53:19;18.30;99.90
21944;DHT22;11136;48.778;9.126;2023-07-28T04:55:45;18.30;99.90
21944;DHT22;11136;48.778;9.126;2023-07-28T04:58:11;18.30;99.90
21944;DHT22;11136;48.778;9.126;2023-07-28T05:00:36;18.30;99.90
21944;DHT22;11136;48.778;9.126;2023-07-28T05:03:02;18.30;99.90
21944;DHT22;11136;48.778;9.126;2023-07-28T05:05:29;18.30;99.90
21944;DHT22;11136;48.778;9.126;2023-07-28T05:07:55;18.30;99.90
21944;DHT22;11136;48.778;9.126;2023-07-28T05:10:20;18.40;99.90
21944;DHT22;11136;48.778;9.126;2023-07-28T05:12:46;18.30;99.90
21944;DHT22;11136;48.778;9.126;2023-07-28T05:15:14;18.30;99.90
21944;DHT22;11136;48.778;9.126;2023-07-28T05:17:40;18.30;99.90
21944;DHT22;11136;48.778;9.126;2023-07-28T05:20:06;18.30;99.90
21944;DHT22;11136;48.778;9.126;2023-07-28T05:22:32;18.30;99.90
21944;DHT22;11136;48.778;9.126;2023-07-28T05:24:58;18.30;99.90
21944;DHT22;11136;48.778;9.126;2023-07-28T05:27:23;18.20;99.90
21944;DHT22;11136;48.778;9.126;2023-07-28T05:29:49;18.30;99.90
21944;DHT22;11136;48.778;9.126;2023-07-28T05:32:15;18.30;99.90
21944;DHT22;11136;48.778;9.126;2023-07-28T05:34:44;18.30;99.90
21944;DHT22;11136;48.778;9.126;2023-07-28T05:37:10;18.20;99.90
21944;DHT22;11136;48.778;9.126;2023-07-28T05:39:36;18.20;99.90
21944;DHT22;11136;48.778;9.126;2023-07-28T05:42:02;18.20;99.90
21944;DHT22;11136;48.778;9.126;2023-07-28T05:44:28;18.20;99.90
21944;DHT22;11136;48.778;9.126;2023-07-28T05:46:53;18.20;99.90
21944;DHT22;11136;48.778;9.126;2023-07-28T05:49:19;18.40;99.90
21944;DHT22;11136;48.778;9.126;2023-07-28T05:51:45;18.20;99.90
21944;DHT22;11136;48.778;9.126;2023-07-28T05:54:12;18.20;99.90
21944;DHT22;11136;48.778;9.126;2023-07-28T05:56:40;18.30;99.90
21944;DHT22;11136;48.778;9.126;2023-07-28T05:59:06;18.30;99.90
21944;DHT22;11136;48.778;9.126;2023-07-28T06:01:31;18.30;99.90
21944;DHT22;11136;48.778;9.126;2023-07-28T06:03:57;18.30;99.90
21944;DHT22;11136;48.778;9.126;2023-07-28T06:06:27;18.40;99.90
21944;DHT22;11136;48.778;9.126;2023-07-28T06:08:53;18.40;99.90
21944;DHT22;11136;48.778;9.126;2023-07-28T06:11:19;18.30;99.90
21944;DHT22;11136;48.778;9.126;2023-07-28T06:13:45;18.30;99.90
21944;DHT22;11136;48.778;9.126;2023-07-28T06:16:12;18.30;99.90
21944;DHT22;11136;48.778;9.126;2023-07-28T06:18:37;18.40;99.90
21944;DHT22;11136;48.778;9.126;2023-07-28T06:21:03;18.50;99.90
21944;DHT22;11136;48.778;9.126;2023-07-28T06:23:29;18.40;99.90
21944;DHT22;11136;48.778;9.126;2023-07-28T06:25:55;18.40;99.90
21944;DHT22;11136;48.778;9.126;2023-07-28T06:28:21;18.40;99.90
21944;DHT22;11136;48.778;9.126;2023-07-28T06:30:47;18.50;99.90
21944;DHT22;11136;48.778;9.126;2023-07-28T06:33:13;18.40;99.90
21944;DHT22;11136;48.778;9.126;2023-07-28T06:35:38;18.40;99.90
21944;DHT22;11136;48.778;9.126;2023-07-28T06:38:04;18.40;99.90
21944;DHT22;11136;48.778;9.126;2023-07-28T06:40:30;18.40;99.90
21944;DHT22;11136;48.778;9.126;2023-07-28T06:42:56;18.40;99.90
21944;DHT22;11136;48.778;9.126;2023-07-28T06:45:21;18.40;99.90
21944;DHT22;11136;48.778;9.126;2023-07-28T06:47:47;18.70;99.90
21944;DHT22;11136;48.778;9.126;2023-07-28T06:50:13;18.40;99.90
21944;DHT22;11136;48.778;9.126;2023-07-28T06:52:39;18.50;99.90
21944;DHT22;11136;48.778;9.126;2023-07-28T06:55:05;18.50;99.90
21944;DHT22;11136;48.778;9.126;2023-07-28T06:57:31;18.50;99.90
21944;DHT22;11136;48.778;9.126;2023-07-28T06:59:57;18.50;99.90
21944;DHT22;11136;48.778;9.126;2023-07-28T07:02:23;18.50;99.90
21944;DHT22;11136;48.778;9.126;2023-07-28T07:04:48;18.50;99.90
21944;DHT22;11136;48.778;9.126;2023-07-28T07:07:14;18.60;99.90
21944;DHT22;11136;48.778;9.126;2023-07-28T07:09:40;18.60;99.90
21944;DHT22;11136;48.778;9.126;2023-07-28T07:12:09;18.70;99.90
21944;DHT22;11136;48.778;9.126;2023-07-28T07:14:35;18.70;99.90
21944;DHT22;11136;48.778;9.126;2023-07-28T07:17:00;18.90;99.90
21944;DHT22;11136;48.778;9.126;2023-07-28T07:19:28;18.80;99.90
21944;DHT22;11136;48.778;9.126;2023-07-28T07:21:54;18.80;99.90
21944;DHT22;11136;48.778;9.126;2023-07-28T07:24:20;18.90;99.90
21944;DHT22;11136;48.778;9.126;2023-07-28T07:26:46;18.80;99.90
21944;DHT22;11136;48.778;9.126;2023-07-28T07:29:12;18.90;99.90
21944;DHT22;11136;48.778;9.126;2023-07-28T07:31:38;18.90;99.90
21944;DHT22;11136;48.778;9.126;2023-07-28T07:34:04;18.90;99.90
21944;DHT22;11136;48.778;9.126;2023-07-28T07:36:30;19.00;99.90
21944;DHT22;11136;48.778;9.126;2023-07-28T07:38:55;19.20;99.90
21944;DHT22;11136;48.778;9.126;2023-07-28T07:41:22;19.00;99.90
21944;DHT22;11136;48.778;9.126;2023-07-28T07:43:49;19.10;99.90
21944;DHT22;11136;48.778;9.126;2023-07-28T07:46:15;19.10;99.90
21944;DHT22;11136;48.778;9.126;2023-07-28T07:48:41;19.20;99.90
21944;DHT22;11136;48.778;9.126;2023-07-28T07:51:08;19.20;99.90
21944;DHT22;11136;48.778;9.126;2023-07-28T07:53:34;19.20;99.90
21944;DHT22;11136;48.778;9.126;2023-07-28T07:56:02;19.30;99.90
21944;DHT22;11136;48.778;9.126;2023-07-28T07:58:28;19.30;99.90
21944;DHT22;11136;48.778;9.126;2023-07-28T08:00:54;19.30;99.90
21944;DHT22;11136;48.778;9.126;2023-07-28T08:03:20;19.30;99.90
21944;DHT22;11136;48.778;9.126;2023-07-28T08:05:45;19.30;99.90
21944;DHT22;11136;48.778;9.126;2023-07-28T08:08:12;19.40;99.90
21944;DHT22;11136;48.778;9.126;2023-07-28T08:10:40;19.40;99.90
21944;DHT22;11136;48.778;9.126;2023-07-28T08:13:06;19.40;99.90
21944;DHT22;11136;48.778;9.126;2023-07-28T08:15:31;19.50;99.90
21944;DHT22;11136;48.778;9.126;2023-07-28T08:17:57;19.50;99.90
21944;DHT22;11136;48.778;9.126;2023-07-28T08:20:22;19.50;99.90
21944;DHT22;11136;48.778;9.126;2023-07-28T08:22:48;19.50;99.90
21944;DHT22;11136;48.778;9.126;2023-07-28T08:25:13;19.50;99.90
21944;DHT22;11136;48.778;9.126;2023-07-28T08:27:39;19.50;99.90
21944;DHT22;11136;48.778;9.126;2023-07-28T08:30:05;19.60;99.90
21944;DHT22;11136;48.778;9.126;2023-07-28T08:32:31;19.60;99.90
21944;DHT22;11136;48.778;9.126;2023-07-28T08:34:56;19.60;99.90
21944;DHT22;11136;48.778;9.126;2023-07-28T08:37:22;19.60;99.90
21944;DHT22;11136;48.778;9.126;2023-07-28T08:39:48;19.60;99.90
21944;DHT22;11136;48.778;9.126;2023-07-28T08:42:13;19.70;99.90
21944;DHT22;11136;48.778;9.126;2023-07-28T08:44:39;19.70;99.90
21944;DHT22;11136;48.778;9.126;2023-07-28T08:47:05;19.70;99.90
21944;DHT22;11136;48.778;9.126;2023-07-28T08:49:31;19.80;99.90
21944;DHT22;11136;48.778;9.126;2023-07-28T08:51:59;19.80;99.90
21944;DHT22;11136;48.778;9.126;2023-07-28T08:54:25;19.80;99.90
21944;DHT22;11136;48.778;9.126;2023-07-28T08:56:51;19.80;99.90
21944;DHT22;11136;48.778;9.126;2023-07-28T08:59:27;20.10;99.90
21944;DHT22;11136;48.778;9.126;2023-07-28T09:01:58;20.00;99.90
21944;DHT22;11136;48.778;9.126;2023-07-28T09:04:28;20.00;99.90
21944;DHT22;11136;48.778;9.126;2023-07-28T09:06:54;20.00;99.90
21944;DHT22;11136;48.778;9.126;2023-07-28T09:09:22;20.00;99.90
21944;DHT22;11136;48.778;9.126;2023-07-28T09:11:53;20.10;99.90
21944;DHT22;11136;48.778;9.126;2023-07-28T09:14:21;20.00;99.90
21944;DHT22;11136;48.778;9.126;2023-07-28T09:16:49;20.10;99.90
21944;DHT22;11136;48.778;9.126;2023-07-28T09:19:16;20.40;99.90
21944;DHT22;11136;48.778;9.126;2023-07-28T09:21:59;20.10;99.90
21944;DHT22;11136;48.778;9.126;2023-07-28T09:24:31;20.10;99.90
21944;DHT22;11136;48.778;9.126;2023-07-28T09:27:00;20.10;99.90
21944;DHT22;11136;48.778;9.126;2023-07-28T09:29:27;20.30;99.90
21944;DHT22;11136;48.778;9.126;2023-07-28T09:31:53;20.20;99.90
21944;DHT22;11136;48.778;9.126;2023-07-28T09:34:28;20.20;99.90
21944;DHT22;11136;48.778;9.126;2023-07-28T09:36:55;20.30;99.90
21944;DHT22;11136;48.778;9.126;2023-07-28T09:39:21;20.30;99.90
21944;DHT22;11136;48.778;9.126;2023-07-28T09:41:47;20.40;99.90
21944;DHT22;11136;48.778;9.126;2023-07-28T09:44:13;20.40;99.90
21944;DHT22;11136;48.778;9.126;2023-07-28T09:46:51;20.50;99.90
21944;DHT22;11136;48.778;9.126;2023-07-28T09:49:29;20.50;99.90
21944;DHT22;11136;48.778;9.126;2023-07-28T09:52:04;20.60;99.90
21944;DHT22;11136;48.778;9.126;2023-07-28T09:54:30;20.60;99.90
21944;DHT22;11136;48.778;9.126;2023-07-28T09:56:58;20.50;99.90
21944;DHT22;11136;48.778;9.126;2023-07-28T09:59:29;20.60;99.90
21944;DHT22;11136;48.778;9.126;2023-07-28T10:02:00;20.60;99.90
21944;DHT22;11136;48.778;9.126;2023-07-28T10:04:26;20.60;99.90
21944;DHT22;11136;48.778;9.126;2023-07-28T10:06:53;20.90;99.90
21944;DHT22;11136;48.778;9.126;2023-07-28T10:09:27;20.60;99.90
21944;DHT22;11136;48.778;9.126;2023-07-28T10:11:53;20.60;99.90
21944;DHT22;11136;48.778;9.126;2023-07-28T10:14:26;20.60;99.90
21944;DHT22;11136;48.778;9.126;2023-07-28T10:16:53;20.60;99.90
21944;DHT22;11136;48.778;9.126;2023-07-28T10:19:24;20.60;99.90
21944;DHT22;11136;48.778;9.126;2023-07-28T10:21:59;20.60;99.90
21944;DHT22;11136;48.778;9.126;2023-07-28T10:24:54;20.60;99.90
21944;DHT22;11136;48.778;9.126;2023-07-28T10:30:03;20.90;99.90
21944;DHT22;11136;48.778;9.126;2023-07-28T10:32:40;20.60;99.90
21944;DHT22;11136;48.778;9.126;2023-07-28T10:37:38;20.70;99.90
21944;DHT22;11136;48.778;9.126;2023-07-28T10:40:22;20.60;99.90
21944;DHT22;11136;48.778;9.126;2023-07-28T10:42:50;20.70;99.90
21944;DHT22;11136;48.778;9.126;2023-07-28T10:45:16;20.70;99.90
21944;DHT22;11136;48.778;9.126;2023-07-28T10:47:42;20.70;99.90
21944;DHT22;11136;48.778;9.126;2023-07-28T10:50:11;20.70;99.90
21944;DHT22;11136;48.778;9.126;2023-07-28T10:52:44;20.70;99.90
21944;DHT22;11136;48.778;9.126;2023-07-28T10:57:44;20.80;99.90
21944;DHT22;11136;48.778;9.126;2023-07-28T11:00:11;20.80;99.90
21944;DHT22;11136;48.778;9.126;2023-07-28T11:02:49;20.90;99.90
21944;DHT22;11136;48.778;9.126;2023-07-28T11:05:23;21.10;99.90
21944;DHT22;11136;48.778;9.126;2023-07-28T11:07:50;21.00;99.90
21944;DHT22;11136;48.778;9.126;2023-07-28T11:10:16;21.10;99.90
21944;DHT22;11136;48.778;9.126;2023-07-28T11:12:47;21.20;99.90
21944;DHT22;11136;48.778;9.126;2023-07-28T11:15:14;21.20;99.90
21944;DHT22;11136;48.778;9.126;2023-07-28T11:17:46;21.30;99.90
21944;DHT22;11136;48.778;9.126;2023-07-28T11:20:25;21.40;99.90
21944;DHT22;11136;48.778;9.126;2023-07-28T11:23:02;21.50;99.90
21944;DHT22;11136;48.778;9.126;2023-07-28T11:25:32;21.60;99.90
21944;DHT22;11136;48.778;9.126;2023-07-28T11:28:01;21.70;99.90
21944;DHT22;11136;48.778;9.126;2023-07-28T11:30:26;21.70;99.90
21944;DHT22;11136;48.778;9.126;2023-07-28T11:32:53;21.80;99.90
21944;DHT22;11136;48.778;9.126;2023-07-28T11:35:20;21.90;99.90
21944;DHT22;11136;48.778;9.126;2023-07-28T11:37:49;22.00;99.90
21944;DHT22;11136;48.778;9.126;2023-07-28T11:40:17;22.20;99.90
21944;DHT22;11136;48.778;9.126;2023-07-28T11:42:47;22.00;99.90
21944;DHT22;11136;48.778;9.126;2023-07-28T11:45:15;22.00;99.90
21944;DHT22;11136;48.778;9.126;2023-07-28T11:47:55;22.00;99.90
21944;DHT22;11136;48.778;9.126;2023-07-28T11:50:26;22.10;99.90
21944;DHT22;11136;48.778;9.126;2023-07-28T11:52:51;22.10;99.90
21944;DHT22;11136;48.778;9.126;2023-07-28T11:55:18;22.10;99.90
21944;DHT22;11136;48.778;9.126;2023-07-28T11:57:44;22.10;99.90
21944;DHT22;11136;48.778;9.126;2023-07-28T12:00:10;22.10;99.90
21944;DHT22;11136;48.778;9.126;2023-07-28T12:02:37;22.10;99.90
21944;DHT22;11136;48.778;9.126;2023-07-28T12:05:15;22.10;99.90
21944;DHT22;11136;48.778;9.126;2023-07-28T12:07:40;22.10;99.90
21944;DHT22;11136;48.778;9.126;2023-07-28T12:10:07;22.00;99.90
21944;DHT22;11136;48.778;9.126;2023-07-28T12:12:45;22.00;99.90
21944;DHT22;11136;48.778;9.126;2023-07-28T12:15:28;21.90;99.90
21944;DHT22;11136;48.778;9.126;2023-07-28T12:18:12;21.90;99.90
21944;DHT22;11136;48.778;9.126;2023-07-28T12:20:53;21.90;99.90
21944;DHT22;11136;48.778;9.126;2023-07-28T12:23:22;21.90;99.90
21944;DHT22;11136;48.778;9.126;2023-07-28T12:25:49;21.80;99.90
21944;DHT22;11136;48.778;9.126;2023-07-28T12:28:16;21.80;99.90
21944;DHT22;11136;48.778;9.126;2023-07-28T12:30:41;21.80;99.90
21944;DHT22;11136;48.778;9.126;2023-07-28T12:33:07;21.80;99.90
21944;DHT22;11136;48.778;9.126;2023-07-28T12:35:33;21.80;99.90
21944;DHT22;11136;48.778;9.126;2023-07-28T12:38:03;21.80;99.90
21944;DHT22;11136;48.778;9.126;2023-07-28T12:40:33;21.80;99.90
21944;DHT22;11136;48.778;9.126;2023-07-28T12:43:01;21.90;99.90
21944;DHT22;11136;48.778;9.126;2023-07-28T12:45:27;22.00;99.90
21944;DHT22;11136;48.778;9.126;2023-07-28T12:47:53;22.00;99.90
21944;DHT22;11136;48.778;9.126;2023-07-28T12:50:20;22.20;99.90
21944;DHT22;11136;48.778;9.126;2023-07-28T12:52:47;22.10;99.90
21944;DHT22;11136;48.778;9.126;2023-07-28T12:55:13;22.00;99.90
21944;DHT22;11136;48.778;9.126;2023-07-28T12:57:39;22.10;99.90
21944;DHT22;11136;48.778;9.126;2023-07-28T13:00:05;22.20;99.90
21944;DHT22;11136;48.778;9.126;2023-07-28T13:02:39;22.20;99.90
21944;DHT22;11136;48.778;9.126;2023-07-28T13:05:05;22.20;99.90
21944;DHT22;11136;48.778;9.126;2023-07-28T13:07:31;22.20;99.90
21944;DHT22;11136;48.778;9.126;2023-07-28T13:09:56;22.30;99.90
21944;DHT22;11136;48.778;9.126;2023-07-28T13:12:22;22.30;99.90
21944;DHT22;11136;48.778;9.126;2023-07-28T13:14:47;22.40;99.90
21944;DHT22;11136;48.778;9.126;2023-07-28T13:17:13;22.30;99.90
21944;DHT22;11136;48.778;9.126;2023-07-28T13:19:40;22.40;99.90
21944;DHT22;11136;48.778;9.126;2023-07-28T13:22:05;22.30;99.90
21944;DHT22;11136;48.778;9.126;2023-07-28T13:24:31;22.30;99.90
21944;DHT22;11136;48.778;9.126;2023-07-28T13:26:57;22.20;99.90
21944;DHT22;11136;48.778;9.126;2023-07-28T13:29:23;22.30;99.90
21944;DHT22;11136;48.778;9.126;2023-07-28T13:31:49;22.20;99.90
21944;DHT22;11136;48.778;9.126;2023-07-28T13:34:15;22.20;99.90
21944;DHT22;11136;48.778;9.126;2023-07-28T13:36:40;22.20;99.90
21944;DHT22;11136;48.778;9.126;2023-07-28T13:39:08;22.20;99.90
21944;DHT22;11136;48.778;9.126;2023-07-28T13:41:34;22.10;99.90
21944;DHT22;11136;48.778;9.126;2023-07-28T13:44:01;22.10;99.90
21944;DHT22;11136;48.778;9.126;2023-07-28T13:46:26;22.10;99.90
21944;DHT22;11136;48.778;9.126;2023-07-28T13:48:52;22.00;99.90
21944;DHT22;11136;48.778;9.126;2023-07-28T13:51:18;22.00;99.90
21944;DHT22;11136;48.778;9.126;2023-07-28T13:53:43;21.90;99.90
21944;DHT22;11136;48.778;9.126;2023-07-28T13:56:09;21.80;99.90
21944;DHT22;11136;48.778;9.126;2023-07-28T13:58:34;21.70;99.90
21944;DHT22;11136;48.778;9.126;2023-07-28T14:01:00;21.60;99.90
21944;DHT22;11136;48.778;9.126;2023-07-28T14:03:25;21.50;99.90
21944;DHT22;11136;48.778;9.126;2023-07-28T14:05:51;21.40;99.90
21944;DHT22;11136;48.778;9.126;2023-07-28T14:08:17;21.30;99.90
21944;DHT22;11136;48.778;9.126;2023-07-28T14:10:46;21.30;99.90
21944;DHT22;11136;48.778;9.126;2023-07-28T14:13:12;21.30;99.90
21944;DHT22;11136;48.778;9.126;2023-07-28T14:15:38;21.20;99.90
21944;DHT22;11136;48.778;9.126;2023-07-28T14:18:03;21.00;99.90
21944;DHT22;11136;48.778;9.126;2023-07-28T14:20:29;21.00;99.90
21944;DHT22;11136;48.778;9.126;2023-07-28T14:22:55;21.00;99.90
21944;DHT22;11136;48.778;9.126;2023-07-28T14:25:21;21.00;99.90
21944;DHT22;11136;48.778;9.126;2023-07-28T14:27:46;21.10;99.90
21944;DHT22;11136;48.778;9.126;2023-07-28T14:30:12;21.00;99.90
21944;DHT22;11136;48.778;9.126;2023-07-28T14:32:38;21.00;99.90
21944;DHT22;11136;48.778;9.126;2023-07-28T14:35:03;21.00;99.90
21944;DHT22;11136;48.778;9.126;2023-07-28T14:37:29;20.90;99.90
21944;DHT22;11136;48.778;9.126;2023-07-28T14:39:55;20.90;99.90
21944;DHT22;11136;48.778;9.126;2023-07-28T14:42:20;20.90;99.90
21944;DHT22;11136;48.778;9.126;2023-07-28T14:44:46;20.90;99.90
21944;DHT22;11136;48.778;9.126;2023-07-28T14:47:11;20.90;99.90
21944;DHT22;11136;48.778;9.126;2023-07-28T14:49:37;20.80;99.90
21944;DHT22;11136;48.778;9.126;2023-07-28T14:52:03;21.00;99.90
21944;DHT22;11136;48.778;9.126;2023-07-28T14:54:28;20.80;99.90
21944;DHT22;11136;48.778;9.126;2023-07-28T14:56:54;20.80;99.90
21944;DHT22;11136;48.778;9.126;2023-07-28T14:59:19;20.80;99.90
21944;DHT22;11136;48.778;9.126;2023-07-28T15:01:45;20.90;99.90
21944;DHT22;11136;48.778;9.126;2023-07-28T15:04:12;20.90;99.90
21944;DHT22;11136;48.778;9.126;2023-07-28T15:06:39;20.90;99.90
21944;DHT22;11136;48.778;9.126;2023-07-28T15:09:05;20.90;99.90
21944;DHT22;11136;48.778;9.126;2023-07-28T15:11:31;21.00;99.90
21944;DHT22;11136;48.778;9.126;2023-07-28T15:13:57;21.10;99.90
21944;DHT22;11136;48.778;9.126;2023-07-28T15:16:22;21.20;99.90
21944;DHT22;11136;48.778;9.126;2023-07-28T15:18:48;21.20;99.90
21944;DHT22;11136;48.778;9.126;2023-07-28T15:21:13;21.30;99.90
21944;DHT22;11136;48.778;9.126;2023-07-28T15:23:39;21.30;99.90
21944;DHT22;11136;48.778;9.126;2023-07-28T15:26:04;21.30;99.90
21944;DHT22;11136;48.778;9.126;2023-07-28T15:28:30;21.30;99.90
21944;DHT22;11136;48.778;9.126;2023-07-28T15:30:57;21.30;99.90
21944;DHT22;11136;48.778;9.126;2023-07-28T15:33:22;21.30;99.90
21944;DHT22;11136;48.778;9.126;2023-07-28T15:35:54;21.40;99.90
21944;DHT22;11136;48.778;9.126;2023-07-28T15:38:20;21.30;99.90